createdAt,value
2023-03-27T08:04:05.717Z,18.90
2023-03-27T08:05:05.743Z,15.20
2023-03-27T08:06:05.581Z,18.30
2023-03-27T08:07:05.415Z,14.10
2023-03-27T08:08:05.434Z,17.60
2023-03-27T08:09:05.349Z,12.40
2023-03-27T08:10:05.336Z,15.40
2023-03-27T08:11:05.660Z,15.80
2023-03-27T08:12:05.308Z,17.40
2023-03-27T08:13:05.319Z,18.50
2023-03-27T08:14:05.282Z,18.80
2023-03-27T08:15:05.300Z,15.90
2023-03-27T08:16:05.317Z,16.40
2023-03-27T08:17:15.005Z,16.60
2023-03-27T08:18:05.254Z,14.80
2023-03-27T08:19:05.214Z,13.30
2023-03-27T08:20:05.210Z,15.50
2023-03-27T08:21:05.200Z,13.50
2023-03-27T08:22:05.215Z,13.10
2023-03-27T08:23:05.162Z,15.10
2023-03-27T08:24:05.157Z,12.70
2023-03-27T08:25:05.139Z,12.60
2023-03-27T08:26:05.134Z,11.70
2023-03-27T08:27:05.182Z,11.90
2023-03-27T08:28:05.102Z,17.40
2023-03-27T08:29:05.096Z,12.00
2023-03-27T08:30:05.093Z,13.60
2023-03-27T08:31:05.165Z,13.70
2023-03-27T08:32:05.087Z,14.90
2023-03-27T08:33:05.133Z,13.10
2023-03-27T08:34:05.041Z,18.50
2023-03-27T08:35:05.020Z,14.10
2023-03-27T08:36:05.015Z,16.90
2023-03-27T08:37:05.028Z,13.90
2023-03-27T08:38:11.251Z,12.40
2023-03-27T08:39:04.971Z,11.00
2023-03-27T08:40:04.976Z,11.80
2023-03-27T08:41:04.949Z,12.90
2023-03-27T08:42:04.953Z,13.80
2023-03-27T08:43:04.951Z,10.70
2023-03-27T08:44:04.919Z,9.60
2023-03-27T08:45:04.905Z,13.40
2023-03-27T08:46:04.930Z,9.60
2023-03-27T08:47:04.898Z,12.70
2023-03-27T08:48:06.084Z,12.10
2023-03-27T08:49:05.968Z,13.90
2023-03-27T08:50:05.972Z,14.50
2023-03-27T08:51:05.958Z,10.20
2023-03-27T08:52:06.026Z,10.00
2023-03-27T08:53:05.954Z,9.90
2023-03-27T08:54:05.928Z,10.20
2023-03-27T08:55:05.899Z,12.00
2023-03-27T08:56:05.898Z,12.50
2023-03-27T08:57:05.937Z,13.20
2023-03-27T08:58:05.859Z,10.40
2023-03-27T08:59:05.896Z,12.00
2023-03-27T09:00:05.853Z,8.90
2023-03-27T09:01:05.865Z,10.80
2023-03-27T09:02:05.855Z,10.40
2023-03-27T09:03:05.896Z,10.70
2023-03-27T09:04:05.847Z,11.80
2023-03-27T09:05:05.801Z,9.10
2023-03-27T09:06:05.762Z,11.10
2023-03-27T09:07:05.752Z,10.90
2023-03-27T09:08:05.808Z,12.40
2023-03-27T09:09:05.768Z,8.60
2023-03-27T09:10:05.732Z,10.90
2023-03-27T09:11:05.718Z,14.20
2023-03-27T09:12:05.713Z,13.50
2023-03-27T09:13:05.682Z,10.10
2023-03-27T09:14:05.694Z,10.90
2023-03-27T09:15:05.708Z,11.30
2023-03-27T09:16:05.711Z,9.20
2023-03-27T09:17:05.653Z,12.80
2023-03-27T09:18:05.663Z,13.20
2023-03-27T09:19:05.637Z,10.90
2023-03-27T09:20:05.740Z,11.00
2023-03-27T09:21:05.643Z,13.30
2023-03-27T09:22:05.824Z,10.70
2023-03-27T09:23:05.596Z,12.20
2023-03-27T09:24:05.604Z,9.60
2023-03-27T09:25:05.574Z,11.40
2023-03-27T09:26:05.609Z,11.80
2023-03-27T09:27:07.539Z,11.00
2023-03-27T09:28:05.589Z,11.70
2023-03-27T09:29:05.516Z,10.80
2023-03-27T09:30:06.416Z,12.10
2023-03-27T09:31:05.582Z,10.20
2023-03-27T09:32:05.513Z,9.90
2023-03-27T09:33:05.502Z,11.20
2023-03-27T09:34:05.485Z,14.00
2023-03-27T09:35:05.476Z,11.50
2023-03-27T09:36:05.535Z,13.50
2023-03-27T09:37:05.463Z,12.30
2023-03-27T09:38:05.420Z,12.90
2023-03-27T09:39:05.401Z,12.80
2023-03-27T09:40:05.408Z,10.60
2023-03-27T09:41:05.411Z,15.60
2023-03-27T09:42:07.203Z,12.80
2023-03-27T09:43:05.396Z,10.50
2023-03-27T09:44:05.355Z,14.00
2023-03-27T09:45:05.364Z,11.40
2023-03-27T09:46:05.313Z,13.00
2023-03-27T09:47:05.788Z,12.20
2023-03-27T09:48:05.415Z,10.10
2023-03-27T09:49:05.289Z,10.10
2023-03-27T09:50:05.291Z,10.80
2023-03-27T09:51:05.270Z,10.00
2023-03-27T09:52:05.307Z,11.10
2023-03-27T09:53:05.253Z,11.90
2023-03-27T09:54:05.232Z,13.50
2023-03-27T09:55:05.227Z,8.60
2023-03-27T09:56:05.572Z,10.20
2023-03-27T09:57:05.267Z,11.10
2023-03-27T09:58:05.201Z,12.20
2023-03-27T09:59:05.191Z,13.30
2023-03-27T10:00:05.170Z,11.30
2023-03-27T10:01:05.232Z,12.00
2023-03-27T10:02:07.579Z,12.30
2023-03-27T10:03:05.274Z,13.90
2023-03-27T10:04:05.162Z,12.20
2023-03-27T10:05:05.120Z,11.50
2023-03-27T10:06:05.131Z,13.20
2023-03-27T10:07:05.105Z,14.70
2023-03-27T10:08:05.102Z,10.20
2023-03-27T10:09:05.067Z,10.90
2023-03-27T10:10:05.060Z,7.70
2023-03-27T10:11:05.061Z,9.50
2023-03-27T10:12:05.102Z,12.40
2023-03-27T10:13:05.034Z,8.50
2023-03-27T10:14:05.033Z,10.60
2023-03-27T10:15:04.997Z,9.40
2023-03-27T10:16:05.029Z,8.90
2023-03-27T10:17:05.123Z,9.50
2023-03-27T10:18:05.018Z,11.00
2023-03-27T10:19:04.962Z,10.70
2023-03-27T10:20:04.930Z,9.80
2023-03-27T10:21:04.928Z,9.00
2023-03-27T10:22:04.918Z,7.80
2023-03-27T10:23:04.942Z,8.80
2023-03-27T10:24:04.921Z,10.20
2023-03-27T10:25:04.879Z,9.60
2023-03-27T10:26:04.898Z,7.80
2023-03-27T10:27:04.863Z,8.20
2023-03-27T10:28:04.848Z,9.50
2023-03-27T10:29:04.816Z,11.10
2023-03-27T10:30:04.813Z,10.10
2023-03-27T10:31:04.815Z,8.50
2023-03-27T10:32:04.795Z,12.40
2023-03-27T10:33:04.888Z,9.60
2023-03-27T10:34:04.776Z,10.20
2023-03-27T10:35:04.767Z,10.20
2023-03-27T10:36:04.767Z,10.90
2023-03-27T10:37:04.727Z,9.30
2023-03-27T10:38:04.743Z,12.20
2023-03-27T10:39:04.726Z,10.40
2023-03-27T10:40:04.729Z,9.00
2023-03-27T10:41:04.690Z,8.40
2023-03-27T10:42:05.423Z,11.70
2023-03-27T10:43:04.651Z,9.70
2023-03-27T10:44:04.839Z,11.40
2023-03-27T10:45:04.630Z,9.00
2023-03-27T10:46:04.692Z,7.80
2023-03-27T10:47:04.646Z,8.50
2023-03-27T10:48:04.601Z,8.60
2023-03-27T10:49:04.626Z,10.60
2023-03-27T10:50:04.576Z,6.30
2023-03-27T10:51:05.261Z,9.30
2023-03-27T10:52:04.570Z,10.20
2023-03-27T10:53:04.602Z,10.10
2023-03-27T10:54:04.594Z,8.50
2023-03-27T10:55:04.547Z,9.40
2023-03-27T10:56:04.505Z,7.20
2023-03-27T10:57:04.521Z,7.80
2023-03-27T10:58:04.480Z,5.80
2023-03-27T10:59:04.536Z,8.20
2023-03-27T11:00:04.453Z,7.80
2023-03-27T11:01:04.466Z,7.70
2023-03-27T11:02:04.439Z,6.90
2023-03-27T11:03:04.477Z,8.00
2023-03-27T11:04:04.471Z,7.90
2023-03-27T11:05:04.463Z,8.60
2023-03-27T11:06:04.390Z,6.60
2023-03-27T11:07:04.376Z,7.90
2023-03-27T11:08:04.384Z,7.80
2023-03-27T11:09:04.349Z,8.30
2023-03-27T11:10:04.381Z,8.90
2023-03-27T11:11:04.325Z,6.90
2023-03-27T11:12:04.373Z,6.60
2023-03-27T11:13:04.292Z,7.30
2023-03-27T11:14:04.386Z,7.40
2023-03-27T11:15:04.294Z,6.40
2023-03-27T11:16:04.286Z,9.10
2023-03-27T11:17:04.448Z,7.10
2023-03-27T11:18:04.297Z,10.10
2023-03-27T11:19:04.233Z,7.10
2023-03-27T11:20:04.216Z,7.60
2023-03-27T11:21:04.239Z,7.00
2023-03-27T11:22:04.210Z,4.80
2023-03-27T11:23:04.164Z,7.20
2023-03-27T11:24:04.199Z,6.30
2023-03-27T11:25:04.162Z,6.70
2023-03-27T11:26:04.163Z,6.10
2023-03-27T11:27:04.124Z,7.30
2023-03-27T11:28:04.150Z,5.20
2023-03-27T11:29:04.127Z,8.10
2023-03-27T11:30:04.094Z,6.70
2023-03-27T11:31:12.559Z,6.00
2023-03-27T11:32:04.090Z,6.70
2023-03-27T11:33:04.102Z,6.50
2023-03-27T11:34:04.079Z,4.80
2023-03-27T11:35:04.524Z,5.90
2023-03-27T11:36:04.152Z,5.40
2023-03-27T11:37:04.030Z,4.30
2023-03-27T11:38:04.013Z,5.80
2023-03-27T11:39:04.029Z,9.30
2023-03-27T11:40:03.998Z,5.90
2023-03-27T11:41:03.993Z,6.00
2023-03-27T11:42:03.971Z,5.30
2023-03-27T11:43:03.948Z,6.20
2023-03-27T11:44:03.951Z,3.90
2023-03-27T11:45:03.928Z,4.70
2023-03-27T11:46:03.962Z,4.80
2023-03-27T11:47:03.928Z,5.30
2023-03-27T11:48:03.953Z,6.00
2023-03-27T11:49:03.914Z,5.00
2023-03-27T11:50:03.885Z,3.20
2023-03-27T11:51:03.855Z,2.80
2023-03-27T11:52:03.873Z,2.60
2023-03-27T11:53:03.857Z,3.90
2023-03-27T11:54:03.815Z,4.30
2023-03-27T11:55:03.821Z,6.90
2023-03-27T11:56:03.795Z,3.90
2023-03-27T11:57:03.855Z,3.50
2023-03-27T11:58:03.789Z,2.80
2023-03-27T11:59:03.774Z,3.70
2023-03-27T12:00:03.776Z,5.00
2023-03-27T12:01:03.908Z,4.00
2023-03-27T12:02:03.819Z,5.30
2023-03-27T12:03:03.879Z,4.90
2023-03-27T12:04:03.796Z,2.70
2023-03-27T12:05:03.756Z,5.00
2023-03-27T12:06:03.684Z,4.80
2023-03-27T12:07:05.173Z,4.10
2023-03-27T12:08:03.675Z,2.80
2023-03-27T12:09:03.644Z,4.10
2023-03-27T12:10:03.618Z,2.10
2023-03-27T12:11:03.635Z,5.00
2023-03-27T12:12:03.599Z,3.80
2023-03-27T12:13:03.642Z,2.10
2023-03-27T12:14:09.007Z,4.10
2023-03-27T12:15:04.560Z,4.20
2023-03-27T12:16:03.599Z,2.60
2023-03-27T12:17:03.561Z,2.70
2023-03-27T12:18:03.604Z,2.60
2023-03-27T12:19:10.616Z,4.20
2023-03-27T12:20:03.524Z,4.80
2023-03-27T12:21:03.821Z,3.30
2023-03-27T12:22:07.099Z,4.00
2023-03-27T12:23:03.500Z,2.70
2023-03-27T12:24:03.494Z,4.40
2023-03-27T12:25:03.449Z,6.20
2023-03-27T12:26:03.465Z,4.00
2023-03-27T12:27:04.078Z,3.90
2023-03-27T12:28:03.410Z,3.30
2023-03-27T12:29:03.463Z,3.00
2023-03-27T12:30:03.386Z,4.00
2023-03-27T12:31:03.424Z,3.90
2023-03-27T12:32:03.422Z,4.10
2023-03-27T12:33:03.388Z,4.00
2023-03-27T12:34:03.439Z,3.60
2023-03-27T12:35:03.349Z,3.90
2023-03-27T12:36:03.393Z,3.00
2023-03-27T12:37:03.307Z,4.00
2023-03-27T12:38:03.306Z,3.00
2023-03-27T12:39:03.460Z,3.10
2023-03-27T12:40:03.574Z,5.40
2023-03-27T12:41:03.524Z,4.00
2023-03-27T12:42:03.275Z,4.70
2023-03-27T12:43:03.281Z,5.60
2023-03-27T12:44:03.267Z,5.30
2023-03-27T12:45:03.284Z,4.60
2023-03-27T12:46:03.377Z,3.50
2023-03-27T12:47:03.215Z,4.90
2023-03-27T12:48:03.212Z,4.40
2023-03-27T12:49:03.227Z,4.30
2023-03-27T12:50:04.179Z,3.70
2023-03-27T12:51:03.138Z,3.60
2023-03-27T12:52:03.149Z,3.40
2023-03-27T12:53:03.106Z,5.10
2023-03-27T12:54:03.112Z,3.70
2023-03-27T12:55:03.154Z,4.60
2023-03-27T12:56:03.084Z,4.40
2023-03-27T12:57:03.155Z,4.40
2023-03-27T12:58:03.317Z,5.80
2023-03-27T12:59:05.536Z,2.80
2023-03-27T13:00:03.087Z,3.60
2023-03-27T13:01:03.065Z,5.20
2023-03-27T13:02:03.125Z,4.00
2023-03-27T13:03:03.105Z,5.10
2023-03-27T13:04:03.138Z,5.00
2023-03-27T13:05:04.081Z,4.10
2023-03-27T13:06:03.044Z,2.50
2023-03-27T13:07:02.953Z,5.50
2023-03-27T13:08:02.961Z,3.20
2023-03-27T13:09:02.924Z,4.70
2023-03-27T13:10:02.939Z,4.10
2023-03-27T13:11:02.983Z,2.70
2023-03-27T13:12:02.905Z,4.60
2023-03-27T13:13:02.889Z,3.70
2023-03-27T13:14:02.879Z,4.20
2023-03-27T13:15:02.887Z,5.50
2023-03-27T13:16:02.854Z,6.00
2023-03-27T13:17:02.881Z,2.90
2023-03-27T13:18:02.909Z,4.30
2023-03-27T13:19:02.805Z,3.10
2023-03-27T13:20:02.795Z,5.10
2023-03-27T13:21:02.810Z,4.90
2023-03-27T13:22:02.841Z,3.80
2023-03-27T13:23:02.758Z,3.90
2023-03-27T13:24:02.750Z,4.40
2023-03-27T13:25:02.761Z,5.60
2023-03-27T13:26:02.772Z,3.30
2023-03-27T13:27:02.720Z,3.10
2023-03-27T13:28:02.747Z,5.20
2023-03-27T13:29:02.703Z,5.60
2023-03-27T13:30:02.693Z,4.90
2023-03-27T13:31:02.738Z,5.40
2023-03-27T13:32:02.710Z,3.70
2023-03-27T13:33:02.753Z,4.00
2023-03-27T13:34:02.662Z,4.70
2023-03-27T13:35:02.631Z,4.90
2023-03-27T13:36:03.228Z,5.30
2023-03-27T13:37:06.240Z,3.90
2023-03-27T13:38:02.669Z,6.20
2023-03-27T13:39:02.633Z,4.20
2023-03-27T13:40:02.596Z,5.00
2023-03-27T13:41:02.561Z,4.70
2023-03-27T13:42:02.723Z,3.80
2023-03-27T13:43:02.572Z,5.80
2023-03-27T13:44:02.573Z,4.10
2023-03-27T13:45:03.071Z,4.60
2023-03-27T13:46:02.496Z,3.30
2023-03-27T13:47:02.567Z,4.80
2023-03-27T13:48:02.522Z,4.40
2023-03-27T13:49:02.481Z,3.50
2023-03-27T13:50:03.462Z,2.50
2023-03-27T13:51:02.434Z,4.70
2023-03-27T13:52:02.438Z,4.60
2023-03-27T13:53:02.432Z,2.40
2023-03-27T13:54:02.437Z,4.60
2023-03-27T13:55:02.467Z,4.60
2023-03-27T13:56:02.375Z,3.20
2023-03-27T13:57:02.433Z,5.30
2023-03-27T13:58:02.374Z,5.90
2023-03-27T13:59:02.345Z,4.40
2023-03-27T14:00:02.522Z,4.60
2023-03-27T14:01:02.349Z,5.50
2023-03-27T14:02:02.375Z,4.10
2023-03-27T14:03:02.333Z,4.60
2023-03-27T14:04:02.352Z,3.00
2023-03-27T14:05:02.278Z,2.60
2023-03-27T14:06:02.651Z,3.90
2023-03-27T14:07:02.259Z,5.10
2023-03-27T14:08:02.259Z,4.90
2023-03-27T14:09:02.236Z,3.30
2023-03-27T14:10:02.218Z,4.10
2023-03-27T14:11:02.305Z,3.30
2023-03-27T14:12:02.185Z,3.70
2023-03-27T14:13:02.213Z,3.40
2023-03-27T14:14:02.176Z,3.90
2023-03-27T14:15:02.177Z,3.40
2023-03-27T14:16:02.183Z,4.20
2023-03-27T14:17:02.173Z,4.30
2023-03-27T14:18:02.120Z,3.50
2023-03-27T14:19:02.159Z,3.90
2023-03-27T14:20:02.261Z,4.40
2023-03-27T14:21:02.094Z,4.60
2023-03-27T14:22:02.104Z,3.50
2023-03-27T14:23:02.089Z,3.20
2023-03-27T14:24:02.082Z,4.20
2023-03-27T14:25:02.068Z,4.00
2023-03-27T14:26:02.035Z,3.30
2023-03-27T14:27:02.036Z,3.30
2023-03-27T14:28:02.020Z,3.40
2023-03-27T14:29:01.983Z,4.20
2023-03-27T14:30:02.031Z,4.20
2023-03-27T14:31:01.961Z,2.80
2023-03-27T14:32:01.978Z,4.50
2023-03-27T14:33:02.034Z,3.20
2023-03-27T14:34:01.908Z,4.40
2023-03-27T14:35:01.905Z,3.30
2023-03-27T14:36:02.248Z,4.40
2023-03-27T14:37:01.886Z,3.70
2023-03-27T14:38:01.954Z,4.10
2023-03-27T14:39:01.877Z,6.00
2023-03-27T14:40:01.977Z,4.50
2023-03-27T14:41:01.887Z,5.10
2023-03-27T14:42:01.878Z,4.40
2023-03-27T14:43:01.817Z,3.20
2023-03-27T14:44:01.935Z,4.40
2023-03-27T14:45:01.803Z,2.90
2023-03-27T14:46:02.020Z,2.40
2023-03-27T14:47:01.778Z,2.40
2023-03-27T14:48:01.830Z,3.00
2023-03-27T14:49:01.764Z,3.30
2023-03-27T14:50:01.858Z,3.00
2023-03-27T14:51:01.740Z,4.10
2023-03-27T14:52:01.743Z,2.60
2023-03-27T14:53:01.955Z,2.40
2023-03-27T14:54:01.851Z,1.40
2023-03-27T14:55:01.691Z,2.90
2023-03-27T14:56:01.699Z,2.60
2023-03-27T14:57:01.754Z,2.60
2023-03-27T14:58:01.691Z,1.80
2023-03-27T14:59:01.693Z,2.60
2023-03-27T15:00:02.078Z,2.40
2023-03-27T15:01:01.621Z,2.60
2023-03-27T15:02:01.666Z,2.00
2023-03-27T15:03:01.590Z,3.00
2023-03-27T15:04:01.611Z,3.90
2023-03-27T15:05:01.604Z,3.00
2023-03-27T15:06:01.626Z,2.10
2023-03-27T15:07:01.614Z,3.80
2023-03-27T15:08:01.525Z,2.50
2023-03-27T15:09:01.570Z,2.60
2023-03-27T15:10:01.561Z,2.70
2023-03-27T15:11:01.531Z,3.00
2023-03-27T15:12:01.519Z,3.50
2023-03-27T15:13:01.561Z,3.60
2023-03-27T15:14:01.469Z,2.40
2023-03-27T15:15:01.483Z,2.00
2023-03-27T15:16:01.457Z,1.90
2023-03-27T15:17:01.532Z,2.20
2023-03-27T15:18:01.438Z,2.00
2023-03-27T15:19:01.412Z,2.50
2023-03-27T15:20:01.557Z,3.10
2023-03-27T15:21:01.405Z,2.80
2023-03-27T15:22:01.672Z,2.70
2023-03-27T15:23:01.353Z,2.80
2023-03-27T15:24:01.449Z,2.40
2023-03-27T15:25:01.374Z,3.20
2023-03-27T15:26:01.367Z,2.80
2023-03-27T15:27:01.325Z,4.20
2023-03-27T15:28:01.321Z,3.00
2023-03-27T15:29:01.366Z,3.60
2023-03-27T15:30:01.464Z,2.80
2023-03-27T15:31:01.382Z,3.40
2023-03-27T15:32:01.334Z,2.00
2023-03-27T15:33:01.286Z,2.20
2023-03-27T15:34:01.243Z,2.30
2023-03-27T15:35:01.342Z,2.30
2023-03-27T15:36:01.319Z,2.10
2023-03-27T15:37:01.216Z,2.50
2023-03-27T15:38:01.211Z,3.80
2023-03-27T15:39:01.163Z,3.00
2023-03-27T15:40:01.170Z,3.80
2023-03-27T15:41:01.236Z,10.20
2023-03-27T15:42:01.177Z,2.60
2023-03-27T15:43:01.153Z,3.10
2023-03-27T15:44:01.164Z,2.30
2023-03-27T15:45:01.112Z,4.90
2023-03-27T15:46:01.458Z,1.90
2023-03-27T15:47:01.214Z,4.30
2023-03-27T15:48:01.150Z,3.00
2023-03-27T15:49:01.089Z,2.70
2023-03-27T15:50:01.076Z,2.60
2023-03-27T15:51:01.063Z,3.00
2023-03-27T15:52:01.079Z,2.30
2023-03-27T15:53:01.043Z,2.60
2023-03-27T15:54:01.010Z,1.70
2023-03-27T15:55:01.026Z,2.60
2023-03-27T15:56:01.000Z,2.60
2023-03-27T15:57:10.417Z,2.50
2023-03-27T15:58:00.976Z,1.80
2023-03-27T15:59:00.988Z,1.70
2023-03-27T16:00:00.967Z,1.90
2023-03-27T16:03:50.632Z,6.00
2023-03-27T16:04:50.397Z,5.20
2023-03-27T16:05:50.365Z,13.20
2023-03-27T16:06:50.340Z,8.90
2023-03-27T16:07:50.315Z,16.00
2023-03-27T16:08:50.222Z,23.70
2023-03-27T16:09:50.220Z,28.10
2023-03-27T16:10:50.216Z,23.30
2023-03-27T16:11:50.217Z,53.10
2023-03-27T16:12:50.331Z,12.10
2023-03-27T16:13:50.159Z,10.80
2023-03-27T16:14:50.141Z,5.60
2023-03-27T16:15:50.179Z,7.60
2023-03-27T16:16:50.139Z,5.20
2023-03-27T16:17:50.201Z,4.40
2023-03-27T16:18:50.099Z,4.20
2023-03-27T16:19:50.093Z,9.20
2023-03-27T16:20:50.081Z,2.20
2023-03-27T16:21:50.061Z,4.70
2023-03-27T16:22:50.067Z,4.40
2023-03-27T16:23:50.041Z,4.40
2023-03-27T16:24:50.032Z,2.80
2023-03-27T16:25:50.090Z,3.30
2023-03-27T16:26:49.995Z,3.70
2023-03-27T16:27:50.009Z,3.80
2023-03-27T16:28:49.970Z,3.30
2023-03-27T16:29:49.966Z,3.00
2023-03-27T16:30:49.952Z,2.40
2023-03-27T16:31:49.996Z,3.40
2023-03-27T16:32:49.992Z,3.60
2023-03-27T16:33:49.921Z,3.70
2023-03-27T16:34:51.061Z,3.60
